createdAt,value
2018-03-06T21:26:01.725Z,42.00
2018-03-06T21:27:01.676Z,29.90
2018-03-06T21:28:01.649Z,30.00
2018-03-06T21:29:01.625Z,34.00
2018-03-06T21:30:01.599Z,29.60
2018-03-06T21:31:01.592Z,33.90
2018-03-06T21:32:01.549Z,31.70
2018-03-06T21:33:01.529Z,35.40
2018-03-06T21:34:01.515Z,33.50
2018-03-06T21:35:01.480Z,32.90
2018-03-06T21:36:02.412Z,34.70
2018-03-06T21:37:01.442Z,34.10
2018-03-06T21:38:01.408Z,31.10
2018-03-06T21:39:01.394Z,33.20
2018-03-06T21:40:01.361Z,35.10
2018-03-06T21:41:01.345Z,33.80
2018-03-06T21:42:01.323Z,35.80
2018-03-06T21:43:01.301Z,35.00
2018-03-06T21:44:01.275Z,33.00
2018-03-06T21:45:01.283Z,34.30
2018-03-06T21:46:01.222Z,34.10
2018-03-06T21:47:01.204Z,33.70
2018-03-06T21:48:01.179Z,31.20
2018-03-06T21:49:01.154Z,38.60
2018-03-06T21:50:01.133Z,36.40
2018-03-06T21:51:01.123Z,37.30
2018-03-06T21:52:01.088Z,35.40
2018-03-06T21:53:01.079Z,34.30
2018-03-06T21:54:01.036Z,39.50
2018-03-06T21:55:01.003Z,35.00
2018-03-06T21:56:00.977Z,38.40
2018-03-06T21:57:00.956Z,36.40
2018-03-06T21:58:00.939Z,37.60
2018-03-06T21:59:00.915Z,36.00
2018-03-06T22:00:00.881Z,39.20
2018-03-06T22:01:00.867Z,37.50
2018-03-06T22:02:00.834Z,38.60
2018-03-06T22:03:00.814Z,41.30
2018-03-06T22:04:00.783Z,37.50
2018-03-06T22:05:00.762Z,37.30
2018-03-06T22:06:00.764Z,38.40
2018-03-06T22:07:00.713Z,40.60
2018-03-06T22:08:00.698Z,40.60
2018-03-06T22:09:00.666Z,41.10
2018-03-06T22:10:00.641Z,37.30
2018-03-06T22:11:00.617Z,40.80
2018-03-06T22:12:00.592Z,39.50
2018-03-06T22:13:00.567Z,41.70
2018-03-06T22:14:00.562Z,40.10
2018-03-06T22:15:00.527Z,40.80
2018-03-06T22:16:00.517Z,40.50
2018-03-06T22:17:00.475Z,41.80
2018-03-06T22:18:00.462Z,41.20
2018-03-06T22:19:00.424Z,40.40
2018-03-06T22:20:00.498Z,40.80
2018-03-06T22:21:00.377Z,41.10
2018-03-06T22:22:00.364Z,42.20
2018-03-06T22:23:00.329Z,41.70
2018-03-06T22:24:00.324Z,42.60
2018-03-06T22:25:00.282Z,40.30
2018-03-06T22:26:00.255Z,43.30
2018-03-06T22:27:00.237Z,41.80
2018-03-06T22:28:00.211Z,42.00
2018-03-06T22:29:00.240Z,42.80
2018-03-06T22:30:00.273Z,46.60
2018-03-06T22:31:00.249Z,45.60
2018-03-06T22:32:00.192Z,40.90
2018-03-06T22:33:00.098Z,44.60
2018-03-06T22:34:00.064Z,41.30
2018-03-06T22:35:00.038Z,42.80
2018-03-06T22:36:00.031Z,43.20
2018-03-06T22:37:00.079Z,43.90
2018-03-06T22:38:00.034Z,42.30
2018-03-06T22:38:59.999Z,43.70
2018-03-06T22:39:59.917Z,40.30
2018-03-06T22:40:59.897Z,41.50
2018-03-06T22:41:59.871Z,45.60
2018-03-06T22:42:59.843Z,41.30
2018-03-06T22:43:59.820Z,41.70
2018-03-06T22:44:59.811Z,45.50
2018-03-06T22:45:59.771Z,38.60
2018-03-06T22:46:59.764Z,44.10
2018-03-06T22:47:59.727Z,41.20
2018-03-06T22:48:59.700Z,41.20
2018-03-06T22:49:59.686Z,42.90
2018-03-06T22:50:59.664Z,45.10
2018-03-06T22:51:59.638Z,44.60
2018-03-06T22:52:59.602Z,46.20
2018-03-06T22:53:59.583Z,41.00
2018-03-06T22:54:59.552Z,42.30
2018-03-06T22:55:59.532Z,42.10
2018-03-06T22:56:59.519Z,41.80
2018-03-06T22:57:59.483Z,43.30
2018-03-06T22:58:59.473Z,43.90
2018-03-06T22:59:59.449Z,44.00
2018-03-06T23:00:59.420Z,43.60
2018-03-06T23:01:59.396Z,40.80
2018-03-06T23:02:59.361Z,42.70
2018-03-06T23:03:59.348Z,42.20
2018-03-06T23:04:59.311Z,42.70
2018-03-06T23:05:59.302Z,41.60
2018-03-06T23:06:59.276Z,44.90
2018-03-06T23:07:59.238Z,42.60
2018-03-06T23:08:59.220Z,43.30
2018-03-06T23:09:59.203Z,44.90
2018-03-06T23:10:59.167Z,45.10
2018-03-06T23:11:59.148Z,40.80
2018-03-06T23:12:59.120Z,44.10
2018-03-06T23:13:59.110Z,45.00
2018-03-06T23:14:59.081Z,45.00
2018-03-06T23:15:59.059Z,44.10
2018-03-06T23:16:59.020Z,44.40
2018-03-06T23:17:58.997Z,45.40
2018-03-06T23:18:58.984Z,49.10
2018-03-06T23:19:58.970Z,42.50
2018-03-06T23:20:58.923Z,41.40
2018-03-06T23:21:58.902Z,48.00
2018-03-06T23:22:58.875Z,45.50
2018-03-06T23:23:58.850Z,45.50
2018-03-06T23:24:58.834Z,44.90
2018-03-06T23:25:58.804Z,41.90
2018-03-06T23:26:58.778Z,43.80
2018-03-06T23:27:58.766Z,44.50
2018-03-06T23:28:58.741Z,46.10
2018-03-06T23:29:58.725Z,44.30
2018-03-06T23:30:58.694Z,46.50
2018-03-06T23:31:58.656Z,45.50
2018-03-06T23:32:58.638Z,41.50
2018-03-06T23:33:58.625Z,43.10
2018-03-06T23:34:58.590Z,44.50
2018-03-06T23:35:58.561Z,47.90
2018-03-06T23:36:58.540Z,45.40
2018-03-06T23:37:58.514Z,44.70
2018-03-06T23:38:58.548Z,44.00
2018-03-06T23:39:58.465Z,47.00
2018-03-06T23:40:58.450Z,48.90
2018-03-06T23:41:58.416Z,44.30
2018-03-06T23:42:58.404Z,43.30
2018-03-06T23:43:58.383Z,45.70
2018-03-06T23:44:58.344Z,43.10
2018-03-06T23:45:58.323Z,45.00
2018-03-06T23:46:58.302Z,44.40
2018-03-06T23:47:58.282Z,42.40
2018-03-06T23:48:58.259Z,44.20
2018-03-06T23:49:58.223Z,48.10
2018-03-06T23:50:58.202Z,47.90
2018-03-06T23:51:58.173Z,48.80
2018-03-06T23:52:58.161Z,44.90
2018-03-06T23:53:58.127Z,42.50
2018-03-06T23:54:58.104Z,45.10
2018-03-06T23:55:58.088Z,49.50
2018-03-06T23:56:58.054Z,45.90
2018-03-06T23:57:58.039Z,48.70
2018-03-06T23:58:58.016Z,43.90
2018-03-06T23:59:57.985Z,48.10
